Valhermoso Sp, Alabama
Current Conditions -  °F | °C
As of 1:53 AM on Monday 24 Nov 2014 (Local Time) from KHSV Reporting Station
Few Clouds Few Clouds  
Wind Chill: 63°   Ceiling: Unl
Heat Index: 63°   Visibility: 10mi
Dew Point: 56°   Wind: 14mph
Humidity: 78%   Direction: 200°SSW
Pressure: 29.61"   Gusts: NA
Location:  34.5494°N, 86.6929°W
Report Text: KHSV 240753Z AUTO 20012KT 10SM FEW024 17/13 A2961 RMK AO2 SLP022 T01720133 $
Loading
Personal Weather Stations






























Interactive Weather Map New forecast layout! Learn more

10-Day Weather Forecast

Advertisements
Track Severe Weather on mobile